Time;durP1;ratioP1;P1;durP2;ratioP2;P2;SDS_P1;SDS_P2;PMS_P1;PMS_P2;Temp;Humidity;BMP_temperature;BMP_pressure;BME280_temperature;BME280_humidity;BME280_pressure;Samples;Min_cycle;Max_cycle;Signal;HPM_P1;HPM_P2
2023/06/24 00:00:36;;;;;;;7.07;3.50;;;;;;;;;;4971638;28;20224;-87
2023/06/24 00:03:08;;;;;;;4.90;4.40;;;;;;;;;;4971748;28;20199;-87
2023/06/24 00:05:38;;;;;;;5.23;3.63;;;;;;;;;;4971532;28;20264;-86
2023/06/24 00:08:08;;;;;;;3.97;2.47;;;;;;;;;;4972002;28;20205;-87
2023/06/24 00:10:37;;;;;;;3.13;2.13;;;;;;;;;;4972152;28;20296;-87
2023/06/24 00:13:07;;;;;;;2.83;2.63;;;;;;;;;;4971509;28;20202;-86
2023/06/24 00:15:35;;;;;;;3.77;2.83;;;;;;;;;;4971731;28;20200;-86
2023/06/24 00:18:06;;;;;;;3.50;2.70;;;;;;;;;;4971616;28;20199;-87
2023/06/24 00:20:35;;;;;;;0.87;0.87;;;;;;;;;;4970555;28;20265;-87
2023/06/24 00:23:05;;;;;;;1.00;0.77;;;;;;;;;;4971054;28;20242;-87
2023/06/24 00:25:34;;;;;;;3.47;3.10;;;;;;;;;;4971474;28;20249;-87
2023/06/24 00:28:02;;;;;;;0.57;0.57;;;;;;;;;;4971735;28;20223;-87
2023/06/24 00:30:31;;;;;;;0.70;0.70;;;;;;;;;;4971184;28;20254;-87
2023/06/24 00:32:59;;;;;;;4.03;1.40;;;;;;;;;;4971630;28;20259;-87
2023/06/24 00:35:28;;;;;;;1.37;1.37;;;;;;;;;;4971586;28;20274;-87
2023/06/24 00:37:58;;;;;;;2.80;2.53;;;;;;;;;;4971542;28;20200;-86
2023/06/24 00:40:28;;;;;;;2.33;1.93;;;;;;;;;;4971167;28;20271;-87
2023/06/24 00:42:57;;;;;;;2.90;2.03;;;;;;;;;;4971188;28;20202;-87
2023/06/24 00:45:26;;;;;;;0.40;0.40;;;;;;;;;;4970151;28;20201;-87
2023/06/24 00:47:56;;;;;;;0.73;0.73;;;;;;;;;;4970843;28;20249;-87
2023/06/24 00:50:24;;;;;;;0.60;0.60;;;;;;;;;;4970802;28;20211;-87
2023/06/24 00:52:53;;;;;;;2.00;0.77;;;;;;;;;;4971217;28;20321;-87
2023/06/24 00:55:22;;;;;;;4.13;2.83;;;;;;;;;;4970980;28;20202;-87
2023/06/24 00:57:53;;;;;;;0.40;0.40;;;;;;;;;;4971297;28;20219;-87
2023/06/24 01:00:24;;;;;;;0.30;0.30;;;;;;;;;;4971311;28;20203;-87
2023/06/24 01:02:53;;;;;;;0.57;0.57;;;;;;;;;;4971367;28;20205;-87
2023/06/24 01:05:23;;;;;;;0.30;0.30;;;;;;;;;;4971065;28;20207;-86
2023/06/24 01:07:55;;;;;;;1.83;1.73;;;;;;;;;;4970753;28;20212;-87
2023/06/24 01:10:25;;;;;;;2.93;2.47;;;;;;;;;;4971277;28;20205;-87
2023/06/24 01:12:56;;;;;;;14.03;2.30;;;;;;;;;;4971176;28;20238;-87
2023/06/24 01:15:28;;;;;;;2.87;2.53;;;;;;;;;;4970802;28;20222;-86
2023/06/24 01:17:59;;;;;;;2.53;2.00;;;;;;;;;;4971067;28;20202;-87
2023/06/24 01:20:29;;;;;;;4.83;2.47;;;;;;;;;;4970507;28;20206;-84
2023/06/24 01:23:21;;;;;;;4.27;2.37;;;;;;;;;;4969602;28;20229;-84
2023/06/24 01:26:00;;;;;;;3.10;2.27;;;;;;;;;;4970265;28;20292;-84
2023/06/24 01:28:42;;;;;;;2.03;1.27;;;;;;;;;;4970340;28;20231;-84
2023/06/24 01:31:37;;;;;;;1.30;1.20;;;;;;;;;;4970376;28;20235;-84
2023/06/24 01:34:12;;;;;;;3.43;2.60;;;;;;;;;;5003041;28;20232;-84
2023/06/24 01:36:44;;;;;;;5.13;3.50;;;;;;;;;;4969984;28;20213;-84
2023/06/24 01:39:13;;;;;;;2.10;1.90;;;;;;;;;;4969913;28;20301;-84
2023/06/24 01:41:42;;;;;;;3.37;2.80;;;;;;;;;;4969702;28;20225;-84
2023/06/24 01:44:12;;;;;;;7.37;3.87;;;;;;;;;;4970363;28;20208;-87
2023/06/24 01:46:41;;;;;;;1.50;1.40;;;;;;;;;;4970837;28;20210;-86
2023/06/24 01:49:13;;;;;;;4.03;2.40;;;;;;;;;;4970198;28;20206;-87
2023/06/24 01:51:43;;;;;;;3.83;2.90;;;;;;;;;;4970354;28;20301;-87
2023/06/24 01:54:13;;;;;;;3.20;1.90;;;;;;;;;;4970397;28;20215;-87
2023/06/24 01:56:43;;;;;;;2.07;1.90;;;;;;;;;;4972714;28;20214;-87
2023/06/24 01:59:12;;;;;;;2.27;1.53;;;;;;;;;;4973344;28;20217;-87
2023/06/24 02:01:41;;;;;;;3.40;3.10;;;;;;;;;;4973994;28;20231;-87
2023/06/24 02:04:10;;;;;;;2.10;1.90;;;;;;;;;;4973889;28;20202;-87
2023/06/24 02:06:41;;;;;;;0.60;0.60;;;;;;;;;;4973409;28;20204;-87
2023/06/24 02:09:11;;;;;;;2.83;2.57;;;;;;;;;;4974037;28;20201;-87
2023/06/24 02:11:40;;;;;;;4.13;1.53;;;;;;;;;;4973512;28;20217;-87
2023/06/24 02:14:09;;;;;;;3.37;1.83;;;;;;;;;;4973352;28;20209;-87
2023/06/24 02:16:40;;;;;;;1.03;1.00;;;;;;;;;;4973703;28;20205;-87
2023/06/24 02:19:10;;;;;;;1.30;1.20;;;;;;;;;;4973526;28;20205;-87
2023/06/24 02:21:41;;;;;;;3.00;1.77;;;;;;;;;;4973188;28;20218;-85
2023/06/24 02:24:10;;;;;;;1.63;1.23;;;;;;;;;;4972223;28;20243;-85
2023/06/24 02:26:40;;;;;;;1.90;1.73;;;;;;;;;;4973224;28;20200;-84
2023/06/24 02:29:10;;;;;;;0.70;0.70;;;;;;;;;;4973232;28;20209;-85
2023/06/24 02:31:39;;;;;;;5.70;2.27;;;;;;;;;;4972971;28;20213;-84
2023/06/24 02:34:07;;;;;;;3.80;2.57;;;;;;;;;;4972891;28;20205;-85
2023/06/24 02:36:36;;;;;;;4.73;3.90;;;;;;;;;;4973172;28;20257;-85
2023/06/24 02:39:08;;;;;;;2.50;2.30;;;;;;;;;;4972966;28;20212;-85
2023/06/24 02:41:36;;;;;;;1.93;1.73;;;;;;;;;;4973135;28;20210;-85
2023/06/24 02:44:05;;;;;;;3.10;2.67;;;;;;;;;;4972875;28;20300;-85
2023/06/24 02:46:35;;;;;;;4.47;2.80;;;;;;;;;;4973228;28;20212;-85
2023/06/24 02:49:03;;;;;;;3.13;2.67;;;;;;;;;;4972421;28;20205;-85
2023/06/24 02:51:32;;;;;;;1.80;1.70;;;;;;;;;;4972933;28;20246;-84
2023/06/24 02:54:01;;;;;;;3.37;2.70;;;;;;;;;;4972610;28;20212;-84
2023/06/24 02:56:31;;;;;;;2.97;2.50;;;;;;;;;;4972503;28;20244;-84
2023/06/24 02:58:59;;;;;;;1.83;1.73;;;;;;;;;;4972256;28;20235;-84
2023/06/24 03:01:28;;;;;;;1.93;1.60;;;;;;;;;;4973093;28;20216;-85
2023/06/24 03:03:57;;;;;;;4.00;2.23;;;;;;;;;;4972982;28;20253;-87
2023/06/24 03:06:27;;;;;;;3.07;2.77;;;;;;;;;;4971972;28;20255;-85
2023/06/24 03:08:55;;;;;;;6.10;3.70;;;;;;;;;;4971867;28;20210;-85
2023/06/24 03:11:23;;;;;;;4.73;3.27;;;;;;;;;;4972727;28;20267;-85
2023/06/24 03:13:53;;;;;;;2.30;2.03;;;;;;;;;;4972313;28;20208;-85
2023/06/24 03:16:23;;;;;;;6.40;3.10;;;;;;;;;;4971970;28;20216;-85
2023/06/24 03:18:52;;;;;;;3.20;2.30;;;;;;;;;;4972585;28;20210;-85
2023/06/24 03:21:20;;;;;;;5.57;3.33;;;;;;;;;;4972005;28;20256;-85
2023/06/24 03:23:49;;;;;;;4.77;3.37;;;;;;;;;;4971668;28;20274;-85
2023/06/24 03:26:17;;;;;;;3.47;2.70;;;;;;;;;;4972518;28;20236;-87
2023/06/24 03:28:46;;;;;;;1.87;1.77;;;;;;;;;;4972653;28;20228;-88
2023/06/24 03:31:16;;;;;;;4.20;2.87;;;;;;;;;;4972483;28;20205;-87
2023/06/24 03:33:45;;;;;;;4.27;3.00;;;;;;;;;;4972731;28;20199;-87
2023/06/24 03:36:13;;;;;;;1.80;1.70;;;;;;;;;;4972908;28;20220;-87
2023/06/24 03:38:42;;;;;;;4.83;2.93;;;;;;;;;;4972620;28;20211;-87
2023/06/24 03:41:10;;;;;;;4.53;3.07;;;;;;;;;;4972325;28;20208;-88
2023/06/24 03:43:39;;;;;;;5.10;3.30;;;;;;;;;;4972268;28;20249;-87
2023/06/24 03:46:07;;;;;;;3.93;3.27;;;;;;;;;;4972131;28;20216;-88
2023/06/24 03:48:38;;;;;;;7.20;3.07;;;;;;;;;;4972505;28;20236;-87
2023/06/24 03:51:06;;;;;;;7.13;3.80;;;;;;;;;;4972368;28;20270;-87
2023/06/24 03:53:34;;;;;;;6.00;2.87;;;;;;;;;;4972202;28;20207;-87
2023/06/24 03:56:03;;;;;;;3.40;2.77;;;;;;;;;;4971974;28;20197;-87
2023/06/24 03:58:31;;;;;;;2.63;2.37;;;;;;;;;;4971909;28;20197;-87
2023/06/24 04:01:01;;;;;;;5.97;2.83;;;;;;;;;;4972247;28;20202;-87
2023/06/24 04:03:29;;;;;;;6.30;3.07;;;;;;;;;;4972080;28;20229;-87
2023/06/24 04:06:01;;;;;;;6.13;3.00;;;;;;;;;;4972197;28;20289;-88
2023/06/24 04:08:30;;;;;;;4.63;3.20;;;;;;;;;;4971080;28;20252;-85
2023/06/24 04:10:59;;;;;;;3.13;2.83;;;;;;;;;;4971448;28;20208;-87
2023/06/24 04:13:28;;;;;;;7.10;3.80;;;;;;;;;;4971636;28;20200;-87
2023/06/24 04:15:56;;;;;;;2.40;2.20;;;;;;;;;;4971395;28;20232;-87
2023/06/24 04:18:25;;;;;;;4.33;2.90;;;;;;;;;;4971791;28;20212;-87
2023/06/24 04:20:53;;;;;;;5.43;2.30;;;;;;;;;;4972062;28;20205;-87
2023/06/24 04:23:23;;;;;;;5.00;3.63;;;;;;;;;;4972188;28;20225;-87
2023/06/24 04:25:52;;;;;;;3.80;2.60;;;;;;;;;;4971686;28;20258;-87
2023/06/24 04:28:23;;;;;;;4.80;4.27;;;;;;;;;;4972225;28;20233;-87
2023/06/24 04:30:51;;;;;;;8.40;3.67;;;;;;;;;;4972335;28;20204;-87
2023/06/24 04:33:20;;;;;;;5.70;3.40;;;;;;;;;;4971313;28;20228;-88
2023/06/24 04:35:48;;;;;;;3.83;2.97;;;;;;;;;;4971565;28;20205;-87
2023/06/24 04:38:18;;;;;;;0.80;0.80;;;;;;;;;;4971541;28;20209;-87
2023/06/24 04:40:48;;;;;;;4.23;2.63;;;;;;;;;;4971777;28;20206;-87
2023/06/24 04:43:17;;;;;;;2.70;2.07;;;;;;;;;;4971387;28;20276;-87
2023/06/24 04:45:45;;;;;;;9.47;3.37;;;;;;;;;;4971690;28;20260;-87
2023/06/24 04:48:13;;;;;;;4.20;2.57;;;;;;;;;;4971625;28;20263;-87
2023/06/24 04:50:42;;;;;;;4.27;2.67;;;;;;;;;;4969934;28;20321;-84
2023/06/24 04:53:10;;;;;;;6.07;3.27;;;;;;;;;;4970804;28;20197;-84
2023/06/24 04:55:39;;;;;;;6.73;3.07;;;;;;;;;;4971099;28;20206;-87
2023/06/24 04:58:09;;;;;;;8.67;4.77;;;;;;;;;;4971456;28;20207;-87
2023/06/24 05:00:37;;;;;;;6.20;3.83;;;;;;;;;;4971068;28;20204;-87
2023/06/24 05:03:06;;;;;;;0.70;0.70;;;;;;;;;;4971776;28;20307;-88
2023/06/24 05:05:37;;;;;;;1.00;1.00;;;;;;;;;;4971559;28;20215;-87
2023/06/24 05:08:06;;;;;;;5.13;1.43;;;;;;;;;;4970907;28;20322;-87
2023/06/24 05:10:35;;;;;;;8.20;3.30;;;;;;;;;;4970975;28;20223;-87
2023/06/24 05:13:03;;;;;;;8.07;4.23;;;;;;;;;;4971002;28;20205;-88
2023/06/24 05:15:33;;;;;;;3.73;3.03;;;;;;;;;;4970824;28;20286;-87
2023/06/24 05:18:02;;;;;;;5.53;4.77;;;;;;;;;;4971215;28;20274;-87
2023/06/24 05:20:31;;;;;;;2.70;2.50;;;;;;;;;;4970901;28;20202;-87
2023/06/24 05:22:59;;;;;;;5.87;4.03;;;;;;;;;;4970839;28;20211;-87
2023/06/24 05:25:27;;;;;;;1.40;1.30;;;;;;;;;;4970427;28;20198;-87
2023/06/24 05:27:56;;;;;;;5.10;1.33;;;;;;;;;;4971193;28;20225;-88
2023/06/24 05:30:24;;;;;;;1.63;1.53;;;;;;;;;;4971267;28;20206;-85
2023/06/24 05:32:54;;;;;;;4.23;3.67;;;;;;;;;;4974152;28;20220;-84
2023/06/24 05:35:23;;;;;;;4.40;3.80;;;;;;;;;;4973792;28;20258;-84
2023/06/24 05:37:51;;;;;;;6.93;5.50;;;;;;;;;;4973823;28;20204;-84
2023/06/24 05:40:20;;;;;;;5.97;3.07;;;;;;;;;;4973416;28;20208;-84
2023/06/24 05:42:51;;;;;;;2.80;2.23;;;;;;;;;;4973288;28;20215;-84
2023/06/24 05:45:20;;;;;;;1.97;1.77;;;;;;;;;;4973535;28;20231;-85
2023/06/24 05:47:48;;;;;;;3.90;2.93;;;;;;;;;;4973922;28;20205;-85
2023/06/24 05:50:18;;;;;;;11.27;4.13;;;;;;;;;;4973617;28;20252;-84
2023/06/24 05:52:47;;;;;;;2.73;1.90;;;;;;;;;;4972765;28;20244;-84
2023/06/24 05:55:15;;;;;;;3.90;3.03;;;;;;;;;;4973210;28;20203;-85
2023/06/24 05:57:44;;;;;;;4.93;4.03;;;;;;;;;;4973025;28;20214;-85
2023/06/24 06:00:13;;;;;;;2.17;1.60;;;;;;;;;;4973005;28;20234;-85
2023/06/24 06:02:41;;;;;;;5.20;1.40;;;;;;;;;;4972848;28;20215;-85
2023/06/24 06:05:10;;;;;;;3.33;2.70;;;;;;;;;;4973243;28;20229;-85
2023/06/24 06:07:40;;;;;;;1.80;1.47;;;;;;;;;;4973153;28;20210;-85
2023/06/24 06:10:09;;;;;;;1.37;1.10;;;;;;;;;;4973313;28;20227;-87
2023/06/24 06:12:37;;;;;;;2.03;1.70;;;;;;;;;;4973956;28;20208;-88
2023/06/24 06:15:06;;;;;;;2.10;1.90;;;;;;;;;;4973599;28;20205;-87
2023/06/24 06:17:35;;;;;;;0.83;0.83;;;;;;;;;;4972891;28;20209;-87
2023/06/24 06:20:03;;;;;;;3.43;2.20;;;;;;;;;;4973494;28;20212;-87
2023/06/24 06:22:37;;;;;;;1.03;1.03;;;;;;;;;;4973515;28;20205;-88
2023/06/24 06:25:07;;;;;;;5.27;2.20;;;;;;;;;;4973328;28;20228;-88
2023/06/24 06:27:36;;;;;;;2.20;1.70;;;;;;;;;;4972436;28;20239;-87
2023/06/24 06:30:05;;;;;;;4.80;2.93;;;;;;;;;;4973380;28;20215;-88
2023/06/24 06:32:35;;;;;;;4.57;2.67;;;;;;;;;;4972867;28;20275;-87
2023/06/24 06:35:04;;;;;;;5.83;2.10;;;;;;;;;;4973145;28;20203;-87
2023/06/24 06:37:35;;;;;;;1.23;1.23;;;;;;;;;;4973418;28;20195;-88
2023/06/24 06:40:03;;;;;;;6.53;3.10;;;;;;;;;;4972884;28;20209;-87
2023/06/24 06:42:33;;;;;;;0.83;0.83;;;;;;;;;;4972776;28;20210;-87
2023/06/24 06:45:02;;;;;;;1.20;0.93;;;;;;;;;;4972611;28;20219;-87
2023/06/24 06:47:31;;;;;;;1.73;1.63;;;;;;;;;;4972919;28;20211;-88
2023/06/24 06:49:59;;;;;;;2.70;1.77;;;;;;;;;;4972989;28;20221;-87
2023/06/24 06:52:28;;;;;;;4.47;2.57;;;;;;;;;;4972050;28;20326;-87
2023/06/24 06:54:56;;;;;;;1.37;1.27;;;;;;;;;;4972850;28;20207;-87
2023/06/24 06:57:25;;;;;;;2.27;2.00;;;;;;;;;;4973279;28;20204;-87
2023/06/24 06:59:58;;;;;;;1.27;1.07;;;;;;;;;;4972423;28;20246;-88
2023/06/24 07:02:26;;;;;;;2.60;2.37;;;;;;;;;;4972253;28;20212;-88
2023/06/24 07:04:55;;;;;;;3.23;2.67;;;;;;;;;;4972535;28;20220;-88
2023/06/24 07:07:23;;;;;;;7.97;4.80;;;;;;;;;;4972735;28;20211;-87
2023/06/24 07:09:52;;;;;;;5.90;2.57;;;;;;;;;;4972305;28;20209;-88
2023/06/24 07:12:20;;;;;;;7.33;4.70;;;;;;;;;;4972625;28;20229;-87
2023/06/24 07:14:49;;;;;;;3.40;1.97;;;;;;;;;;4972816;28;20196;-87
2023/06/24 07:17:19;;;;;;;4.67;2.30;;;;;;;;;;4972065;28;20215;-88
2023/06/24 07:19:47;;;;;;;1.50;1.03;;;;;;;;;;4972264;28;20204;-87
2023/06/24 07:22:16;;;;;;;1.30;1.20;;;;;;;;;;4972705;28;20208;-88
2023/06/24 07:24:44;;;;;;;3.77;2.47;;;;;;;;;;4972175;28;20300;-87
2023/06/24 07:27:13;;;;;;;1.47;1.37;;;;;;;;;;4971740;28;20228;-85
2023/06/24 07:29:41;;;;;;;2.03;1.43;;;;;;;;;;4972017;28;20202;-85
2023/06/24 07:32:10;;;;;;;5.27;3.30;;;;;;;;;;4972200;28;20212;-86
2023/06/24 07:34:40;;;;;;;2.90;2.07;;;;;;;;;;4971403;28;20198;-85
2023/06/24 07:37:08;;;;;;;5.87;3.90;;;;;;;;;;4971826;28;20200;-85
2023/06/24 07:39:51;;;;;;;5.60;4.77;;;;;;;;;;4972085;28;20213;-85
2023/06/24 07:42:19;;;;;;;0.83;0.83;;;;;;;;;;4971880;28;20231;-84
2023/06/24 07:44:48;;;;;;;8.27;2.63;;;;;;;;;;4971337;28;20297;-85
2023/06/24 07:47:18;;;;;;;3.83;2.27;;;;;;;;;;4971767;28;20209;-85
2023/06/24 07:49:48;;;;;;;8.30;5.67;;;;;;;;;;4971830;28;20204;-84
2023/06/24 07:52:16;;;;;;;7.53;1.73;;;;;;;;;;4971248;28;20248;-84
2023/06/24 07:54:45;;;;;;;3.03;2.03;;;;;;;;;;4970783;28;20203;-85
2023/06/24 07:57:13;;;;;;;2.83;1.30;;;;;;;;;;4971661;28;20222;-85
2023/06/24 07:59:42;;;;;;;2.37;1.70;;;;;;;;;;4971817;28;20208;-87
2023/06/24 08:02:10;;;;;;;1.37;1.30;;;;;;;;;;4971460;28;20213;-86
2023/06/24 08:04:39;;;;;;;4.53;2.73;;;;;;;;;;4971583;28;20282;-87
2023/06/24 08:07:09;;;;;;;6.57;2.00;;;;;;;;;;4971447;28;20205;-87
2023/06/24 08:09:37;;;;;;;7.57;5.77;;;;;;;;;;4971277;28;20270;-88
2023/06/24 08:12:08;;;;;;;8.67;5.20;;;;;;;;;;4971516;28;20209;-85
2023/06/24 08:14:37;;;;;;;5.43;4.70;;;;;;;;;;4970681;28;20221;-85
2023/06/24 08:17:05;;;;;;;11.20;4.43;;;;;;;;;;4971508;28;20217;-85
2023/06/24 08:19:33;;;;;;;7.13;4.30;;;;;;;;;;4971083;28;20219;-85
2023/06/24 08:22:02;;;;;;;5.83;1.83;;;;;;;;;;4971180;28;20210;-85
2023/06/24 08:24:32;;;;;;;0.47;0.47;;;;;;;;;;4971391;28;20200;-85
2023/06/24 08:27:01;;;;;;;6.93;3.50;;;;;;;;;;4971019;28;20209;-85
2023/06/24 08:29:29;;;;;;;5.00;3.97;;;;;;;;;;4971338;28;20215;-85
2023/06/24 08:31:58;;;;;;;3.47;2.13;;;;;;;;;;4971787;28;20198;-85
2023/06/24 08:34:26;;;;;;;2.33;2.07;;;;;;;;;;4971059;28;20206;-85
2023/06/24 08:36:55;;;;;;;2.53;2.07;;;;;;;;;;4971076;28;20269;-85
2023/06/24 08:39:23;;;;;;;6.47;3.03;;;;;;;;;;4971135;28;20207;-85
2023/06/24 08:41:53;;;;;;;1.53;1.30;;;;;;;;;;4971163;28;20253;-85
2023/06/24 08:44:22;;;;;;;1.87;1.27;;;;;;;;;;4970589;28;20206;-84
2023/06/24 08:46:50;;;;;;;1.63;1.30;;;;;;;;;;4970716;28;20326;-84
2023/06/24 08:49:25;;;;;;;0.67;0.67;;;;;;;;;;4970953;28;20212;-85
2023/06/24 08:51:57;;;;;;;2.57;1.93;;;;;;;;;;4970788;28;20266;-84
2023/06/24 08:54:27;;;;;;;5.93;2.73;;;;;;;;;;4970767;28;20205;-84
2023/06/24 08:57:01;;;;;;;2.07;1.27;;;;;;;;;;4964751;28;20211;-84
2023/06/24 08:59:32;;;;;;;3.20;2.50;;;;;;;;;;4968420;28;20310;-84
2023/06/24 09:02:03;;;;;;;5.00;2.97;;;;;;;;;;4970714;28;20215;-84
2023/06/24 09:04:32;;;;;;;29.20;6.80;;;;;;;;;;4970662;28;20213;-84
2023/06/24 09:07:00;;;;;;;4.87;2.47;;;;;;;;;;4956067;28;20252;-84
2023/06/24 09:09:30;;;;;;;2.33;2.03;;;;;;;;;;4951990;28;20236;-84
2023/06/24 09:12:04;;;;;;;6.23;2.53;;;;;;;;;;4959854;28;20206;-84
2023/06/24 09:14:32;;;;;;;3.67;2.07;;;;;;;;;;4965432;28;20206;-85
2023/06/24 09:17:02;;;;;;;2.80;1.90;;;;;;;;;;4971407;28;20204;-85
2023/06/24 09:19:32;;;;;;;8.90;3.73;;;;;;;;;;4956354;28;20259;-84
2023/06/24 09:22:03;;;;;;;2.37;1.73;;;;;;;;;;4971429;28;20209;-85
2023/06/24 09:24:32;;;;;;;4.03;2.27;;;;;;;;;;4970491;28;20201;-85
2023/06/24 09:27:06;;;;;;;3.43;2.20;;;;;;;;;;4969631;28;20212;-85
2023/06/24 09:29:35;;;;;;;4.00;2.60;;;;;;;;;;4969699;28;20262;-84
2023/06/24 09:32:05;;;;;;;2.33;2.13;;;;;;;;;;4964119;28;20232;-85
2023/06/24 09:34:34;;;;;;;1.63;1.30;;;;;;;;;;4950836;28;20206;-85
2023/06/24 09:37:06;;;;;;;4.83;3.73;;;;;;;;;;4950767;28;20202;-85
2023/06/24 09:39:37;;;;;;;3.17;1.63;;;;;;;;;;4950390;28;20211;-85
2023/06/24 09:42:07;;;;;;;6.67;3.40;;;;;;;;;;4950886;28;20255;-85
2023/06/24 09:44:36;;;;;;;2.73;2.23;;;;;;;;;;4950503;28;20198;-84
2023/06/24 09:47:05;;;;;;;3.93;1.77;;;;;;;;;;4950681;28;20261;-85
2023/06/24 09:49:35;;;;;;;4.50;2.93;;;;;;;;;;4950666;28;20269;-84
2023/06/24 09:52:06;;;;;;;7.23;3.60;;;;;;;;;;4950783;28;20245;-85
2023/06/24 09:54:34;;;;;;;3.30;2.53;;;;;;;;;;4949974;28;20202;-84
2023/06/24 09:57:04;;;;;;;3.50;1.93;;;;;;;;;;4950801;28;20206;-85
2023/06/24 09:59:35;;;;;;;3.23;1.40;;;;;;;;;;4950871;28;20216;-84
2023/06/24 10:02:05;;;;;;;1.97;1.57;;;;;;;;;;4950245;28;20208;-85
2023/06/24 10:04:34;;;;;;;3.03;2.80;;;;;;;;;;4950586;28;20261;-85
2023/06/24 10:07:03;;;;;;;2.83;1.43;;;;;;;;;;4950988;28;20332;-84
2023/06/24 10:09:31;;;;;;;4.20;2.33;;;;;;;;;;4950573;28;20235;-85
2023/06/24 10:12:01;;;;;;;2.70;1.53;;;;;;;;;;4950580;28;20216;-84
2023/06/24 10:14:29;;;;;;;4.43;2.63;;;;;;;;;;4950497;28;20203;-84
2023/06/24 10:17:04;;;;;;;3.80;1.40;;;;;;;;;;4952238;28;20203;-84
2023/06/24 10:19:38;;;;;;;4.27;3.30;;;;;;;;;;4953766;28;20225;-85
2023/06/24 10:22:10;;;;;;;3.47;3.17;;;;;;;;;;4953917;28;20206;-84
2023/06/24 10:24:41;;;;;;;4.13;2.53;;;;;;;;;;4953471;28;20200;-85
2023/06/24 10:27:11;;;;;;;2.53;2.13;;;;;;;;;;4953767;28;20328;-85
2023/06/24 10:29:39;;;;;;;14.63;2.60;;;;;;;;;;4953464;28;20208;-87
2023/06/24 10:32:12;;;;;;;7.90;4.27;;;;;;;;;;4953678;28;20211;-87
2023/06/24 10:34:41;;;;;;;2.37;2.17;;;;;;;;;;4953903;28;20204;-87
2023/06/24 10:37:11;;;;;;;2.60;2.33;;;;;;;;;;4953920;28;20309;-87
2023/06/24 10:39:41;;;;;;;2.70;2.47;;;;;;;;;;4953761;28;20209;-85
2023/06/24 10:42:28;;;;;;;4.43;3.20;;;;;;;;;;4953821;28;20205;-87
2023/06/24 10:44:57;;;;;;;6.97;3.73;;;;;;;;;;4953290;28;20215;-87
2023/06/24 10:47:27;;;;;;;4.03;2.37;;;;;;;;;;4953194;28;20242;-87
2023/06/24 10:49:56;;;;;;;2.90;2.57;;;;;;;;;;4953547;28;20274;-87
2023/06/24 10:52:25;;;;;;;4.77;3.73;;;;;;;;;;4953293;28;20252;-87
2023/06/24 10:54:54;;;;;;;2.20;2.00;;;;;;;;;;4952757;28;20212;-88
2023/06/24 10:57:24;;;;;;;4.80;2.80;;;;;;;;;;4953650;28;20200;-87
2023/06/24 10:59:53;;;;;;;1.67;1.57;;;;;;;;;;4953619;28;20216;-87
2023/06/24 11:02:22;;;;;;;3.33;1.90;;;;;;;;;;4953274;28;20209;-88
2023/06/24 11:04:54;;;;;;;4.23;3.30;;;;;;;;;;4953387;28;20270;-87
2023/06/24 11:07:23;;;;;;;4.60;1.87;;;;;;;;;;4953107;28;20303;-87
2023/06/24 11:09:52;;;;;;;2.87;2.47;;;;;;;;;;4953686;28;20205;-87
2023/06/24 11:12:25;;;;;;;4.93;2.80;;;;;;;;;;4952983;28;20214;-85
2023/06/24 11:14:59;;;;;;;2.53;2.13;;;;;;;;;;4952989;28;20210;-85
2023/06/24 11:17:28;;;;;;;3.90;1.57;;;;;;;;;;4953213;28;20202;-88
2023/06/24 11:19:59;;;;;;;1.60;1.40;;;;;;;;;;4952942;28;20203;-87
2023/06/24 11:22:28;;;;;;;7.77;2.77;;;;;;;;;;4952505;28;20194;-88
2023/06/24 11:24:56;;;;;;;2.73;1.80;;;;;;;;;;4953359;28;20206;-87
2023/06/24 11:27:26;;;;;;;6.57;2.30;;;;;;;;;;4952869;28;20256;-87
2023/06/24 11:29:55;;;;;;;3.50;2.50;;;;;;;;;;4952051;28;20215;-87
2023/06/24 11:32:23;;;;;;;2.47;1.67;;;;;;;;;;4953239;28;20210;-87
2023/06/24 11:34:52;;;;;;;5.40;2.77;;;;;;;;;;4953023;28;20257;-87
2023/06/24 11:37:32;;;;;;;8.13;3.27;;;;;;;;;;4952569;28;20350;-87
2023/06/24 11:40:04;;;;;;;5.67;2.90;;;;;;;;;;4952901;28;20203;-88
2023/06/24 11:42:34;;;;;;;3.50;2.77;;;;;;;;;;4952812;28;20259;-87
2023/06/24 11:45:03;;;;;;;1.47;1.37;;;;;;;;;;4952606;28;20207;-87
2023/06/24 11:47:35;;;;;;;3.13;2.60;;;;;;;;;;4952257;28;20229;-87
2023/06/24 11:50:04;;;;;;;4.63;3.30;;;;;;;;;;4952857;28;20200;-87
2023/06/24 11:52:44;;;;;;;5.60;3.73;;;;;;;;;;4952110;28;20246;-87
2023/06/24 11:55:13;;;;;;;5.70;2.87;;;;;;;;;;4951972;28;20209;-87
2023/06/24 11:57:51;;;;;;;1.97;1.83;;;;;;;;;;4952579;28;20195;-87
2023/06/24 12:00:23;;;;;;;7.43;3.37;;;;;;;;;;4952692;28;20212;-87
2023/06/24 12:02:54;;;;;;;1.93;1.77;;;;;;;;;;4953004;28;20210;-87
2023/06/24 12:05:29;;;;;;;1.53;1.40;;;;;;;;;;4951972;28;20226;-87
2023/06/24 12:08:03;;;;;;;3.60;2.40;;;;;;;;;;4952591;28;20226;-87
2023/06/24 12:10:33;;;;;;;8.63;5.73;;;;;;;;;;4952318;28;20221;-86
2023/06/24 12:13:02;;;;;;;6.07;3.13;;;;;;;;;;4951746;28;20208;-88
2023/06/24 12:15:31;;;;;;;6.27;3.80;;;;;;;;;;4952340;28;20211;-87
2023/06/24 12:18:00;;;;;;;4.43;3.83;;;;;;;;;;4951971;28;20187;-87
2023/06/24 12:20:28;;;;;;;2.83;2.63;;;;;;;;;;4952263;28;20223;-87
2023/06/24 12:23:00;;;;;;;2.30;1.67;;;;;;;;;;4952156;28;20243;-87
2023/06/24 12:25:30;;;;;;;4.57;2.33;;;;;;;;;;4952088;28;20195;-87
2023/06/24 12:27:59;;;;;;;3.60;3.03;;;;;;;;;;4951980;28;20237;-87
2023/06/24 12:30:28;;;;;;;2.87;1.77;;;;;;;;;;4951538;28;20240;-87
2023/06/24 12:32:57;;;;;;;2.47;2.00;;;;;;;;;;4952284;28;20199;-88
2023/06/24 12:35:26;;;;;;;15.80;6.80;;;;;;;;;;4951828;28;20208;-87
2023/06/24 12:37:54;;;;;;;4.27;3.80;;;;;;;;;;4951844;28;20206;-87
2023/06/24 12:40:23;;;;;;;7.30;4.40;;;;;;;;;;4951648;28;20214;-87
2023/06/24 12:42:54;;;;;;;2.57;2.20;;;;;;;;;;4951816;28;20198;-85
2023/06/24 12:45:22;;;;;;;4.97;2.10;;;;;;;;;;4951730;28;20207;-85
2023/06/24 12:47:51;;;;;;;5.33;2.47;;;;;;;;;;4951001;28;20227;-84
2023/06/24 12:50:20;;;;;;;5.37;2.33;;;;;;;;;;4951772;28;20283;-85
2023/06/24 12:52:49;;;;;;;4.33;3.47;;;;;;;;;;4951442;28;20242;-85
2023/06/24 12:55:18;;;;;;;1.10;1.00;;;;;;;;;;4951368;28;20265;-85
2023/06/24 12:57:46;;;;;;;2.97;2.33;;;;;;;;;;4951860;28;20258;-84
2023/06/24 13:00:20;;;;;;;6.70;2.90;;;;;;;;;;4951602;28;20209;-85
2023/06/24 13:02:49;;;;;;;8.90;2.37;;;;;;;;;;4951223;28;20199;-84
2023/06/24 13:05:18;;;;;;;2.83;2.43;;;;;;;;;;4951154;28;20211;-85
2023/06/24 13:07:46;;;;;;;1.90;1.43;;;;;;;;;;4951009;28;20227;-87
2023/06/24 13:10:15;;;;;;;3.33;2.17;;;;;;;;;;4951650;28;20204;-87
2023/06/24 13:12:43;;;;;;;2.53;2.33;;;;;;;;;;4951196;28;20241;-87
2023/06/24 13:15:13;;;;;;;3.00;2.33;;;;;;;;;;4951052;28;20213;-84
2023/06/24 13:17:43;;;;;;;2.97;2.10;;;;;;;;;;4951081;28;20213;-85
2023/06/24 13:20:12;;;;;;;2.50;1.43;;;;;;;;;;4951599;28;20227;-88
2023/06/24 13:22:40;;;;;;;4.03;3.07;;;;;;;;;;4950813;28;20201;-87
2023/06/24 13:25:09;;;;;;;2.47;1.97;;;;;;;;;;4951241;28;20212;-87
2023/06/24 13:27:38;;;;;;;3.20;2.43;;;;;;;;;;4951655;28;20251;-87
2023/06/24 13:30:09;;;;;;;4.33;3.63;;;;;;;;;;4950856;28;20207;-84
2023/06/24 13:32:38;;;;;;;6.23;3.13;;;;;;;;;;4950900;28;20290;-85
2023/06/24 13:35:09;;;;;;;2.73;1.97;;;;;;;;;;4951008;28;20211;-85
2023/06/24 13:37:39;;;;;;;5.73;2.70;;;;;;;;;;4950898;28;20192;-84
2023/06/24 13:40:11;;;;;;;1.43;1.33;;;;;;;;;;4950549;28;20205;-84
2023/06/24 13:42:39;;;;;;;3.97;3.47;;;;;;;;;;4950909;28;20201;-84
2023/06/24 13:45:11;;;;;;;5.93;2.13;;;;;;;;;;4950779;28;20204;-85
2023/06/24 13:47:39;;;;;;;4.33;2.40;;;;;;;;;;4950948;28;20213;-85
2023/06/24 13:50:10;;;;;;;5.07;2.20;;;;;;;;;;4950649;28;20277;-84
2023/06/24 13:52:39;;;;;;;1.47;1.37;;;;;;;;;;4953150;28;20248;-87
2023/06/24 13:55:07;;;;;;;2.47;1.57;;;;;;;;;;4954562;28;20203;-87
2023/06/24 13:57:36;;;;;;;2.00;1.40;;;;;;;;;;4954086;28;20215;-88
2023/06/24 14:00:05;;;;;;;2.90;2.57;;;;;;;;;;4954248;28;20205;-88
2023/06/24 14:02:33;;;;;;;2.30;1.73;;;;;;;;;;4954321;28;20213;-87
2023/06/24 14:05:02;;;;;;;6.43;1.77;;;;;;;;;;4953854;28;20296;-87
2023/06/24 14:07:32;;;;;;;8.57;3.30;;;;;;;;;;4954108;28;20204;-87
2023/06/24 14:10:00;;;;;;;4.33;2.87;;;;;;;;;;4953988;28;20233;-87
2023/06/24 14:12:29;;;;;;;1.90;1.60;;;;;;;;;;4954095;28;20199;-87
2023/06/24 14:14:57;;;;;;;2.43;1.60;;;;;;;;;;4953613;28;20254;-87
2023/06/24 14:17:26;;;;;;;3.73;3.33;;;;;;;;;;4953893;28;20201;-87
2023/06/24 14:19:55;;;;;;;3.80;3.43;;;;;;;;;;4953932;28;20200;-86
2023/06/24 14:22:26;;;;;;;2.07;1.87;;;;;;;;;;4953666;28;20236;-87
2023/06/24 14:24:55;;;;;;;0.57;0.53;;;;;;;;;;4953711;28;20204;-87
2023/06/24 14:27:24;;;;;;;2.13;1.40;;;;;;;;;;4953981;28;20327;-87
2023/06/24 14:29:52;;;;;;;4.73;3.43;;;;;;;;;;4953844;28;20227;-87
2023/06/24 14:32:24;;;;;;;2.47;1.90;;;;;;;;;;4953502;28;20216;-87
2023/06/24 14:34:55;;;;;;;6.57;1.83;;;;;;;;;;4953868;28;20221;-87
2023/06/24 14:37:24;;;;;;;4.40;3.20;;;;;;;;;;4954259;28;20258;-87
2023/06/24 14:39:53;;;;;;;3.47;3.13;;;;;;;;;;4953625;28;20208;-87
2023/06/24 14:42:22;;;;;;;4.60;3.90;;;;;;;;;;4954025;28;20204;-85
2023/06/24 14:44:51;;;;;;;2.00;1.87;;;;;;;;;;4953733;28;20209;-85
2023/06/24 14:47:19;;;;;;;2.90;2.47;;;;;;;;;;4953638;28;20230;-85
2023/06/24 14:49:51;;;;;;;3.63;2.93;;;;;;;;;;4953313;28;20227;-85
2023/06/24 14:52:20;;;;;;;6.33;2.33;;;;;;;;;;4953568;28;20254;-85
2023/06/24 14:54:51;;;;;;;12.20;3.77;;;;;;;;;;4953212;28;20300;-87
2023/06/24 14:57:20;;;;;;;1.77;1.67;;;;;;;;;;4953219;28;20213;-87